Costa Victoria — IBLC — position and weather

sailwx.info

Track history (hours):
 
Tides and Currents Weather Stations Pressure Air Temp Water Temp Dewpoint Dewpoint Depression Visibility Wind Speed Wind Dir Waves Ship Positions

Costa Victoria

Last reported at 2020-Jun-27 02:30 UTC. Time now 2020-Aug-09 23:27 UTC.
Position N 42°56' E 010°34'.
Warning: this ship's position is 43 days out of date.

Length 252 m; draft 8.1 m.

Type: Passenger vessel. MMSI: 247109000.

Date/timePositionNaut miles runAvg speedWind from/ knotsBaromVisibWave heightAir tempDewpointWater temp
2020-Jun-27 02:30N 42°56' E 010°34'0 0.0
2020-Jun-27 01:45N 42°56' E 010°34'0 0.0
2020-Jun-27 01:00N 42°56' E 010°34'0 0.0
2020-Jun-26 22:57N 42°56' E 010°34'0 0.0
2020-Jun-26 21:00N 42°56' E 010°34'0 0.0
2020-Jun-26 20:30N 42°56' E 010°34'0 0.0
2020-Jun-26 18:54N 42°56' E 010°34'0 0.0
2020-Jun-26 17:30N 42°56' E 010°34'0 0.0
2020-Jun-26 15:51N 42°56' E 010°34'0 0.0
2020-Jun-26 14:00N 42°56' E 010°34'0 0.0
2020-Jun-26 12:57N 42°56' E 010°34'0 0.0
2020-Jun-26 12:30N 42°56' E 010°34'0 0.0
2020-Jun-26 12:00N 42°56' E 010°34'0 0.0
2020-Jun-26 11:27N 42°56' E 010°34'0 0.0
2020-Jun-26 11:00N 42°56' E 010°34'0 0.0
2020-Jun-26 08:00N 42°56' E 010°34'0 0.0
2020-Jun-26 07:30N 42°56' E 010°34'0 0.0
2020-Jun-26 05:42N 42°56' E 010°34'0 0.0
2020-Jun-26 05:30N 42°56' E 010°34'0 0.0
2020-Jun-26 02:30N 42°56' E 010°34'0 0.0
2020-Jun-26 00:30N 42°56' E 010°34'0 0.0
2020-Jun-25 20:00N 42°56' E 010°34'0 0.0
2020-Jun-25 19:00N 42°56' E 010°34'0 0.0
2020-Jun-25 18:00N 42°56' E 010°34'0 0.0
2020-Jun-25 16:30N 42°56' E 010°34'0 0.0
2020-Jun-25 14:30N 42°56' E 010°34'0 0.0
2020-Jun-25 13:00N 42°56' E 010°34'0 0.0
2020-Jun-25 12:30N 42°56' E 010°34'0 0.0
2020-Jun-25 11:54N 42°56' E 010°34'0 0.0
2020-Jun-25 11:30N 42°56' E 010°34'0 0.0
2020-Jun-25 09:30N 42°56' E 010°34'0 0.0
2020-Jun-25 08:30N 42°56' E 010°34'0 0.0
2020-Jun-25 04:57N 42°56' E 010°34'0 0.0
2020-Jun-25 04:00N 42°56' E 010°34'0 0.0
2020-Jun-25 03:00N 42°56' E 010°34'0 0.0
2020-Jun-25 01:57N 42°56' E 010°34'0 0.0
2020-Jun-25 01:30N 42°56' E 010°34'0 0.0
2020-Jun-24 23:51N 42°56' E 010°34'0 0.0
2020-Jun-24 20:57N 42°56' E 010°34'0 0.0
2020-Jun-24 18:30N 42°56' E 010°34'0 0.0
2020-Jun-24 15:30N 42°56' E 010°34'0 0.0
2020-Jun-24 13:57N 42°56' E 010°34'0 0.0
2020-Jun-24 12:00N 42°56' E 010°34'0 0.0
2020-Jun-24 11:30N 42°56' E 010°34'0 0.0
2020-Jun-24 09:57N 42°56' E 010°34'0 0.0
2020-Jun-24 06:57N 42°56' E 010°34'0 0.0
2020-Jun-24 06:00N 42°56' E 010°34'0 0.0
2020-Jun-24 04:00N 42°56' E 010°34'0 0.0
2020-Jun-24 02:54N 42°56' E 010°34'0 0.0
2020-Jun-24 02:30N 42°56' E 010°34'0 0.0
2020-Jun-24 01:00N 42°56' E 010°34'0 0.0
2020-Jun-23 21:57N 42°56' E 010°34'0 0.0
2020-Jun-23 21:30N 42°56' E 010°34'0 0.0
2020-Jun-23 18:27N 42°56' E 010°34'0 0.0
2020-Jun-23 17:27N 42°56' E 010°34'0 0.0
2020-Jun-23 13:30N 42°56' E 010°34'0 0.0
2020-Jun-23 11:00N 42°56' E 010°34'0 0.0
2020-Jun-23 10:30N 42°56' E 010°34'0 0.0
2020-Jun-23 10:00N 42°56' E 010°34'0 0.0
2020-Jun-23 09:30N 42°56' E 010°34'0 0.0
2020-Jun-23 08:30N 42°56' E 010°34'21 6.8
2020-Jun-23 05:30N 42°36' E 010°32'5 9.9
2020-Jun-23 05:00N 42°31' E 010°33'10 9.9
2020-Jun-23 04:00N 42°21' E 010°34'9 9.4
2020-Jun-23 03:00N 42°12' E 010°36'14 9.4
2020-Jun-23 01:30N 41°58' E 010°36'18 8.1
2020-Jun-22 23:16N 41°41' E 010°26'17 9.5
2020-Jun-22 21:30N 41°41' E 010°03'5 9.5
2020-Jun-22 21:00N 41°39' E 009°58'4 8.9
2020-Jun-22 20:30N 41°35' E 009°55'52 8.7
2020-Jun-22 14:30N 41°46' E 011°04'5 9.8
2020-Jun-22 14:00N 41°49' E 011°09'33 1.1
2020-Jun-21 09:27N 42°06' E 011°47'0 0.0
2020-Jun-20 20:45N 42°06' E 011°47'0 0.0
2020-Jun-20 20:30N 42°06' E 011°47'0 0.0
2020-Jun-20 18:30N 42°06' E 011°47'0 0.0
2020-Jun-20 15:18N 42°06' E 011°47'  
Track history (hours):
 
Tides and Currents Weather Stations Pressure Air Temp Water Temp Dewpoint Dewpoint Depression Visibility Wind Speed Wind Dir Waves Ship Positions

Costa Victoria

Last reported at 2020-Jun-27 02:30 UTC. Time now 2020-Aug-09 23:27 UTC.
Position N 42°56' E 010°34'.
Warning: this ship's position is 43 days out of date.

Length 252 m; draft 8.1 m.

Type: Passenger vessel. MMSI: 247109000.

Date/timePositionNaut miles runAvg speedWind from/ knotsBaromVisibWave heightAir tempDewpointWater temp
2020-Jun-27 02:30N 42°56' E 010°34'0 0.0
2020-Jun-27 01:45N 42°56' E 010°34'0 0.0
2020-Jun-27 01:00N 42°56' E 010°34'0 0.0
2020-Jun-26 22:57N 42°56' E 010°34'0 0.0
2020-Jun-26 21:00N 42°56' E 010°34'0 0.0
2020-Jun-26 20:30N 42°56' E 010°34'0 0.0
2020-Jun-26 18:54N 42°56' E 010°34'0 0.0
2020-Jun-26 17:30N 42°56' E 010°34'0 0.0
2020-Jun-26 15:51N 42°56' E 010°34'0 0.0
2020-Jun-26 14:00N 42°56' E 010°34'0 0.0
2020-Jun-26 12:57N 42°56' E 010°34'0 0.0
2020-Jun-26 12:30N 42°56' E 010°34'0 0.0
2020-Jun-26 12:00N 42°56' E 010°34'0 0.0
2020-Jun-26 11:27N 42°56' E 010°34'0 0.0
2020-Jun-26 11:00N 42°56' E 010°34'0 0.0
2020-Jun-26 08:00N 42°56' E 010°34'0 0.0
2020-Jun-26 07:30N 42°56' E 010°34'0 0.0
2020-Jun-26 05:42N 42°56' E 010°34'0 0.0
2020-Jun-26 05:30N 42°56' E 010°34'0 0.0
2020-Jun-26 02:30N 42°56' E 010°34'0 0.0
2020-Jun-26 00:30N 42°56' E 010°34'0 0.0
2020-Jun-25 20:00N 42°56' E 010°34'0 0.0
2020-Jun-25 19:00N 42°56' E 010°34'0 0.0
2020-Jun-25 18:00N 42°56' E 010°34'0 0.0
2020-Jun-25 16:30N 42°56' E 010°34'0 0.0
2020-Jun-25 14:30N 42°56' E 010°34'0 0.0
2020-Jun-25 13:00N 42°56' E 010°34'0 0.0
2020-Jun-25 12:30N 42°56' E 010°34'0 0.0
2020-Jun-25 11:54N 42°56' E 010°34'0 0.0
2020-Jun-25 11:30N 42°56' E 010°34'0 0.0
2020-Jun-25 09:30N 42°56' E 010°34'0 0.0
2020-Jun-25 08:30N 42°56' E 010°34'0 0.0
2020-Jun-25 04:57N 42°56' E 010°34'0 0.0
2020-Jun-25 04:00N 42°56' E 010°34'0 0.0
2020-Jun-25 03:00N 42°56' E 010°34'0 0.0
2020-Jun-25 01:57N 42°56' E 010°34'0 0.0
2020-Jun-25 01:30N 42°56' E 010°34'0 0.0
2020-Jun-24 23:51N 42°56' E 010°34'0 0.0
2020-Jun-24 20:57N 42°56' E 010°34'0 0.0
2020-Jun-24 18:30N 42°56' E 010°34'0 0.0
2020-Jun-24 15:30N 42°56' E 010°34'0 0.0
2020-Jun-24 13:57N 42°56' E 010°34'0 0.0
2020-Jun-24 12:00N 42°56' E 010°34'0 0.0
2020-Jun-24 11:30N 42°56' E 010°34'0 0.0
2020-Jun-24 09:57N 42°56' E 010°34'0 0.0
2020-Jun-24 06:57N 42°56' E 010°34'0 0.0
2020-Jun-24 06:00N 42°56' E 010°34'0 0.0
2020-Jun-24 04:00N 42°56' E 010°34'0 0.0
2020-Jun-24 02:54N 42°56' E 010°34'0 0.0
2020-Jun-24 02:30N 42°56' E 010°34'0 0.0
2020-Jun-24 01:00N 42°56' E 010°34'0 0.0
2020-Jun-23 21:57N 42°56' E 010°34'0 0.0
2020-Jun-23 21:30N 42°56' E 010°34'0 0.0
2020-Jun-23 18:27N 42°56' E 010°34'0 0.0
2020-Jun-23 17:27N 42°56' E 010°34'0 0.0
2020-Jun-23 13:30N 42°56' E 010°34'0 0.0
2020-Jun-23 11:00N 42°56' E 010°34'0 0.0
2020-Jun-23 10:30N 42°56' E 010°34'0 0.0
2020-Jun-23 10:00N 42°56' E 010°34'0 0.0
2020-Jun-23 09:30N 42°56' E 010°34'0 0.0
2020-Jun-23 08:30N 42°56' E 010°34'21 6.8
2020-Jun-23 05:30N 42°36' E 010°32'5 9.9
2020-Jun-23 05:00N 42°31' E 010°33'10 9.9
2020-Jun-23 04:00N 42°21' E 010°34'9 9.4
2020-Jun-23 03:00N 42°12' E 010°36'14 9.4
2020-Jun-23 01:30N 41°58' E 010°36'18 8.1
2020-Jun-22 23:16N 41°41' E 010°26'17 9.5
2020-Jun-22 21:30N 41°41' E 010°03'5 9.5
2020-Jun-22 21:00N 41°39' E 009°58'4 8.9
2020-Jun-22 20:30N 41°35' E 009°55'52 8.7
2020-Jun-22 14:30N 41°46' E 011°04'5 9.8
2020-Jun-22 14:00N 41°49' E 011°09'33 1.1
2020-Jun-21 09:27N 42°06' E 011°47'0 0.0
2020-Jun-20 20:45N 42°06' E 011°47'0 0.0
2020-Jun-20 20:30N 42°06' E 011°47'0 0.0
2020-Jun-20 18:30N 42°06' E 011°47'0 0.0
2020-Jun-20 15:18N 42°06' E 011°47'  

Dump ship's entire track history